createdAt,value
2022-10-02T00:01:32.756Z,94009.00
2022-10-02T00:05:43.435Z,94026.00
2022-10-02T00:09:51.980Z,94030.00
2022-10-02T00:14:00.709Z,94047.00
2022-10-02T00:18:17.203Z,94039.00
2022-10-02T00:22:46.231Z,94030.00
2022-10-02T00:27:40.577Z,94040.00
2022-10-02T00:32:05.368Z,94042.00
2022-10-02T00:37:04.719Z,94060.00
2022-10-02T00:42:00.808Z,94056.00
2022-10-02T00:46:23.868Z,94064.00
2022-10-02T00:51:03.347Z,94068.00
2022-10-02T00:56:09.878Z,94073.00
2022-10-02T01:00:18.154Z,94077.00
2022-10-02T01:04:48.171Z,94083.00
2022-10-02T01:08:52.120Z,94088.00
2022-10-02T01:12:56.129Z,94093.00
2022-10-02T01:23:29.693Z,94093.00
2022-10-02T01:27:35.512Z,94101.00
2022-10-02T01:31:56.292Z,94102.00
2022-10-02T01:35:58.452Z,94106.00
2022-10-02T01:40:22.399Z,94113.00
2022-10-02T01:44:25.032Z,94108.00
2022-10-02T01:48:35.573Z,94114.00
2022-10-02T01:53:04.158Z,94118.00
2022-10-02T01:57:35.258Z,94123.00
2022-10-02T02:06:23.463Z,94132.00
2022-10-02T02:10:49.987Z,94115.00
2022-10-02T02:15:08.958Z,94117.00
2022-10-02T02:19:33.440Z,94124.00
2022-10-02T02:23:49.286Z,94129.00
2022-10-02T02:28:04.717Z,94134.00
2022-10-02T02:32:20.253Z,94147.00
2022-10-02T02:36:29.045Z,94165.00
2022-10-02T02:40:39.713Z,94161.00
2022-10-02T02:44:54.737Z,94161.00
2022-10-02T02:49:14.077Z,94170.00
2022-10-02T02:58:44.530Z,94190.00
2022-10-02T03:07:21.908Z,94193.00
2022-10-02T03:11:59.376Z,94197.00
2022-10-02T03:16:29.754Z,94209.00
2022-10-02T03:21:15.418Z,94213.00
2022-10-02T03:25:31.496Z,94225.00
2022-10-02T03:34:36.524Z,94216.00
2022-10-02T03:43:00.802Z,94219.00
2022-10-02T03:47:06.008Z,94240.00
2022-10-02T03:51:11.697Z,94217.00
2022-10-02T03:55:38.719Z,94229.00
2022-10-02T04:00:05.915Z,94230.00
2022-10-02T04:04:18.135Z,94225.00
2022-10-02T04:09:11.583Z,94214.00
2022-10-02T04:13:39.523Z,94206.00
2022-10-02T04:18:06.569Z,94196.00
2022-10-02T04:27:45.649Z,94213.00
2022-10-02T04:32:09.994Z,94205.00
2022-10-02T04:36:39.553Z,94222.00
2022-10-02T04:45:33.195Z,94233.00
2022-10-02T04:49:41.526Z,94237.00
2022-10-02T04:54:01.145Z,94240.00
2022-10-02T04:58:39.505Z,94241.00
2022-10-02T05:02:46.879Z,94251.00
2022-10-02T05:07:04.666Z,94250.00
2022-10-02T05:11:49.772Z,94249.00
2022-10-02T05:16:26.425Z,94257.00
2022-10-02T05:20:45.822Z,94250.00
2022-10-02T05:25:19.310Z,94237.00
2022-10-02T05:29:41.643Z,94256.00
2022-10-02T05:34:09.709Z,94246.00
2022-10-02T05:38:46.891Z,94253.00
2022-10-02T05:43:20.217Z,94272.00
2022-10-02T05:47:35.599Z,94268.00
2022-10-02T05:51:45.372Z,94263.00
2022-10-02T05:56:00.946Z,94265.00
2022-10-02T06:00:18.035Z,94282.00
2022-10-02T06:04:27.702Z,94274.00
2022-10-02T06:08:58.717Z,94259.00
2022-10-02T06:13:36.185Z,94275.00
2022-10-02T06:17:59.572Z,94272.00
2022-10-02T06:22:12.661Z,94280.00
2022-10-02T06:26:30.387Z,94273.00
2022-10-02T06:30:42.033Z,94272.00
2022-10-02T06:34:47.982Z,94274.00
2022-10-02T06:38:55.677Z,94294.00
2022-10-02T06:43:14.607Z,94273.00
2022-10-02T06:47:58.060Z,94277.00
2022-10-02T06:52:26.640Z,94300.00
2022-10-02T06:56:46.316Z,94291.00
2022-10-02T07:01:05.746Z,94282.00
2022-10-02T07:05:41.367Z,94290.00
2022-10-02T07:10:11.968Z,94281.00
2022-10-02T07:14:33.339Z,94303.00
2022-10-02T07:19:00.567Z,94315.00
2022-10-02T07:23:17.559Z,94318.00
2022-10-02T07:27:40.793Z,94301.00
2022-10-02T07:31:58.578Z,94311.00
2022-10-02T07:36:07.486Z,94325.00
2022-10-02T07:44:51.681Z,94322.00
2022-10-02T07:49:03.542Z,94314.00
2022-10-02T07:53:54.819Z,94324.00
2022-10-02T07:58:26.058Z,94313.00
2022-10-02T08:02:38.871Z,94286.00
2022-10-02T08:06:45.294Z,94303.00
2022-10-02T08:11:15.112Z,94276.00
2022-10-02T08:15:20.807Z,94295.00
2022-10-02T08:19:32.892Z,94311.00
2022-10-02T08:24:00.022Z,94307.00
2022-10-02T08:28:27.734Z,94294.00
2022-10-02T08:32:37.037Z,94286.00
2022-10-02T08:37:18.540Z,94299.00
2022-10-02T08:41:47.165Z,94303.00
2022-10-02T08:46:18.031Z,94303.00
2022-10-02T08:50:31.254Z,94294.00
2022-10-02T08:55:02.121Z,94285.00
2022-10-02T08:59:29.872Z,94287.00
2022-10-02T09:03:49.782Z,94284.00
2022-10-02T09:08:30.696Z,94295.00
2022-10-02T09:12:54.067Z,94306.00
2022-10-02T09:17:33.713Z,94292.00
2022-10-02T09:21:52.871Z,94306.00
2022-10-02T09:26:01.333Z,94302.00
2022-10-02T09:30:03.954Z,94304.00
2022-10-02T09:34:06.667Z,94297.00
2022-10-02T09:38:14.401Z,94316.00
2022-10-02T09:42:38.936Z,94288.00
2022-10-02T09:47:06.529Z,94295.00
2022-10-02T09:51:57.569Z,94299.00
2022-10-02T09:56:31.312Z,94287.00
2022-10-02T10:01:07.440Z,94292.00
2022-10-02T10:05:36.449Z,94289.00
2022-10-02T10:09:55.639Z,94296.00
2022-10-02T10:14:37.912Z,94316.00
2022-10-02T10:18:48.237Z,94304.00
2022-10-02T10:23:28.719Z,94294.00
2022-10-02T10:27:43.683Z,94288.00
2022-10-02T10:31:51.716Z,94271.00
2022-10-02T10:36:46.750Z,94287.00
2022-10-02T10:41:23.006Z,94277.00
2022-10-02T10:45:44.863Z,94279.00
2022-10-02T10:50:14.242Z,94267.00
2022-10-02T10:54:49.978Z,94269.00
2022-10-02T10:59:12.582Z,94260.00
2022-10-02T11:03:45.208Z,94262.00
2022-10-02T11:08:07.421Z,94266.00
2022-10-02T11:12:19.924Z,94245.00
2022-10-02T11:16:53.035Z,94269.00
2022-10-02T11:21:11.002Z,94265.00
2022-10-02T11:25:19.790Z,94271.00
2022-10-02T11:29:44.708Z,94270.00
2022-10-02T11:34:06.493Z,94261.00
2022-10-02T11:38:15.522Z,94253.00
2022-10-02T11:42:43.911Z,94252.00
2022-10-02T11:47:10.621Z,94238.00
2022-10-02T11:51:31.105Z,94235.00
2022-10-02T11:55:44.077Z,94234.00
2022-10-02T12:00:13.250Z,94227.00
2022-10-02T12:04:47.556Z,94241.00
2022-10-02T12:08:57.074Z,94233.00
2022-10-02T12:13:34.556Z,94238.00
2022-10-02T12:17:55.173Z,94222.00
2022-10-02T12:22:41.870Z,94209.00
2022-10-02T12:27:18.044Z,94217.00
2022-10-02T12:31:34.867Z,94218.00
2022-10-02T12:35:43.571Z,94217.00
2022-10-02T12:40:27.583Z,94217.00
2022-10-02T12:44:45.652Z,94221.00
2022-10-02T12:49:20.582Z,94219.00
2022-10-02T12:53:51.302Z,94210.00
2022-10-02T12:58:36.026Z,94205.00
2022-10-02T13:03:01.265Z,94200.00
2022-10-02T13:07:46.979Z,94203.00
2022-10-02T13:12:03.913Z,94198.00
2022-10-02T13:16:10.161Z,94195.00
2022-10-02T13:20:29.827Z,94179.00
2022-10-02T13:24:40.561Z,94179.00
2022-10-02T13:29:20.311Z,94182.00
2022-10-02T13:33:38.660Z,94165.00
2022-10-02T13:37:55.904Z,94164.00
2022-10-02T13:42:06.986Z,94165.00
2022-10-02T13:46:55.656Z,94147.00
2022-10-02T13:51:18.022Z,94150.00
2022-10-02T13:55:31.511Z,94155.00
2022-10-02T13:59:40.677Z,94155.00
2022-10-02T14:03:55.916Z,94150.00
2022-10-02T14:08:16.481Z,94157.00
2022-10-02T14:12:48.223Z,94138.00
2022-10-02T14:17:24.600Z,94130.00
2022-10-02T14:21:47.045Z,94122.00
2022-10-02T14:26:42.775Z,94155.00
2022-10-02T14:31:10.007Z,94163.00
2022-10-02T14:35:41.896Z,94158.00
2022-10-02T14:39:45.823Z,94165.00
2022-10-02T14:44:10.933Z,94145.00
2022-10-02T14:48:32.300Z,94144.00
2022-10-02T14:52:57.698Z,94143.00
2022-10-02T14:57:20.652Z,94139.00
2022-10-02T15:01:28.999Z,94137.00
2022-10-02T15:06:05.868Z,94132.00
2022-10-02T15:10:28.490Z,94116.00
2022-10-02T15:14:45.511Z,94106.00
2022-10-02T15:19:00.595Z,94092.00
2022-10-02T15:23:08.990Z,94081.00
2022-10-02T15:27:23.631Z,94089.00
2022-10-02T15:31:36.321Z,94065.00
2022-10-02T15:35:57.994Z,94082.00
2022-10-02T15:40:19.753Z,94061.00
2022-10-02T15:44:57.794Z,94045.00
2022-10-02T15:49:03.982Z,94049.00
2022-10-02T15:53:21.440Z,94046.00
2022-10-02T15:57:49.488Z,94078.00
2022-10-02T16:02:18.351Z,94072.00
2022-10-02T16:07:07.568Z,94078.00
2022-10-02T16:16:32.423Z,94064.00
2022-10-02T16:20:45.401Z,94083.00
2022-10-02T16:25:43.790Z,94074.00
2022-10-02T16:30:09.962Z,94090.00
2022-10-02T16:34:52.740Z,94075.00
2022-10-02T16:39:19.248Z,94089.00
2022-10-02T16:43:35.711Z,94096.00
2022-10-02T16:48:02.030Z,94107.00
2022-10-02T16:52:08.104Z,94120.00
2022-10-02T16:56:32.567Z,94106.00
2022-10-02T17:01:00.609Z,94124.00
2022-10-02T17:05:17.417Z,94104.00
2022-10-02T17:09:24.458Z,94119.00
2022-10-02T17:13:47.761Z,94129.00
2022-10-02T17:18:16.833Z,94147.00
2022-10-02T17:22:31.001Z,94156.00
2022-10-02T17:26:45.993Z,94135.00
2022-10-02T17:31:27.719Z,94153.00
2022-10-02T17:36:03.435Z,94140.00
2022-10-02T17:40:21.249Z,94126.00
2022-10-02T17:44:46.639Z,94158.00
2022-10-02T17:49:01.145Z,94150.00
2022-10-02T17:53:38.105Z,94163.00
2022-10-02T17:58:01.425Z,94160.00
2022-10-02T18:02:26.461Z,94147.00
2022-10-02T18:06:45.078Z,94154.00
2022-10-02T18:11:21.319Z,94167.00
2022-10-02T18:15:30.645Z,94161.00
2022-10-02T18:20:15.353Z,94178.00
2022-10-02T18:24:43.764Z,94176.00
2022-10-02T18:29:01.423Z,94182.00
2022-10-02T18:33:32.522Z,94195.00
2022-10-02T18:37:58.289Z,94202.00
2022-10-02T18:42:31.308Z,94196.00
2022-10-02T18:46:57.767Z,94210.00
2022-10-02T18:51:22.472Z,94195.00
2022-10-02T18:55:40.226Z,94204.00
2022-10-02T18:59:50.829Z,94208.00
2022-10-02T19:04:03.829Z,94215.00
2022-10-02T19:08:16.760Z,94216.00
2022-10-02T19:12:26.569Z,94219.00
2022-10-02T19:16:31.516Z,94226.00
2022-10-02T19:20:49.594Z,94231.00
2022-10-02T19:25:11.277Z,94242.00
2022-10-02T19:29:46.770Z,94247.00
2022-10-02T19:33:56.871Z,94245.00
2022-10-02T19:38:26.572Z,94246.00
2022-10-02T19:42:44.366Z,94246.00
2022-10-02T19:46:57.748Z,94238.00
2022-10-02T19:51:07.954Z,94265.00
2022-10-02T19:55:43.339Z,94259.00
2022-10-02T19:59:52.543Z,94262.00
2022-10-02T20:03:59.606Z,94262.00
2022-10-02T20:08:08.371Z,94272.00
2022-10-02T20:12:48.039Z,94280.00
2022-10-02T20:17:08.717Z,94274.00
2022-10-02T20:21:33.239Z,94294.00
2022-10-02T20:25:48.806Z,94287.00
2022-10-02T20:30:01.106Z,94287.00
2022-10-02T20:34:11.976Z,94283.00
2022-10-02T20:38:25.465Z,94291.00
2022-10-02T20:42:45.043Z,94295.00
2022-10-02T20:46:53.558Z,94295.00
2022-10-02T20:51:07.524Z,94282.00
2022-10-02T20:55:36.397Z,94276.00
2022-10-02T20:59:39.806Z,94295.00
2022-10-02T21:04:09.985Z,94294.00
2022-10-02T21:08:48.286Z,94301.00
2022-10-02T21:13:16.776Z,94297.00
2022-10-02T21:17:58.661Z,94306.00
2022-10-02T21:22:21.956Z,94294.00
2022-10-02T21:26:37.441Z,94308.00
2022-10-02T21:35:51.999Z,94308.00
2022-10-02T21:40:48.102Z,94316.00
2022-10-02T21:44:59.231Z,94313.00
2022-10-02T21:49:05.826Z,94316.00
2022-10-02T21:53:33.095Z,94310.00
2022-10-02T21:58:10.296Z,94301.00
2022-10-02T22:02:50.435Z,94303.00
2022-10-02T22:07:04.806Z,94311.00
2022-10-02T22:11:29.474Z,94308.00
2022-10-02T22:16:04.667Z,94325.00
2022-10-02T22:20:24.865Z,94322.00
2022-10-02T22:25:18.610Z,94325.00
2022-10-02T22:29:41.762Z,94318.00
2022-10-02T22:34:33.588Z,94309.00
2022-10-02T22:38:46.783Z,94323.00
2022-10-02T22:43:07.236Z,94309.00
2022-10-02T22:47:26.081Z,94335.00
2022-10-02T22:51:45.917Z,94329.00
2022-10-02T22:55:58.923Z,94321.00
2022-10-02T23:00:11.296Z,94320.00
2022-10-02T23:04:52.107Z,94347.00
2022-10-02T23:09:19.314Z,94321.00
2022-10-02T23:13:38.893Z,94336.00
2022-10-02T23:17:58.574Z,94346.00
2022-10-02T23:22:11.770Z,94340.00
2022-10-02T23:26:39.936Z,94340.00
2022-10-02T23:31:14.659Z,94345.00
2022-10-02T23:35:33.676Z,94350.00
2022-10-02T23:39:43.609Z,94352.00
2022-10-02T23:44:18.278Z,94348.00
2022-10-02T23:48:21.908Z,94353.00
2022-10-02T23:52:31.873Z,94361.00
